sensor_id;sensor_type;location;lat;lon;timestamp;pressure;altitude;pressure_sealevel;temperature;humidity
40650;BME280;26342;42.826;23.992;2024-03-22T00:00:28;95495.19;;;2.85;100.00
40650;BME280;26342;42.826;23.992;2024-03-22T00:02:54;95483.03;;;2.77;100.00
40650;BME280;26342;42.826;23.992;2024-03-22T00:05:19;95494.16;;;2.79;100.00
40650;BME280;26342;42.826;23.992;2024-03-22T00:07:46;95494.16;;;2.73;100.00
40650;BME280;26342;42.826;23.992;2024-03-22T00:10:12;95498.41;;;2.74;100.00
40650;BME280;26342;42.826;23.992;2024-03-22T00:12:38;95500.25;;;2.73;100.00
40650;BME280;26342;42.826;23.992;2024-03-22T00:15:04;95499.66;;;2.71;100.00
40650;BME280;26342;42.826;23.992;2024-03-22T00:17:29;95485.88;;;2.63;100.00
40650;BME280;26342;42.826;23.992;2024-03-22T00:19:56;95485.47;;;2.59;100.00
40650;BME280;26342;42.826;23.992;2024-03-22T00:22:21;95496.59;;;2.68;100.00
40650;BME280;26342;42.826;23.992;2024-03-22T00:24:47;95484.47;;;2.54;100.00
40650;BME280;26342;42.826;23.992;2024-03-22T00:27:12;95494.81;;;2.48;100.00
40650;BME280;26342;42.826;23.992;2024-03-22T00:29:38;95487.91;;;2.34;100.00
40650;BME280;26342;42.826;23.992;2024-03-22T00:32:04;95489.34;;;2.30;100.00
40650;BME280;26342;42.826;23.992;2024-03-22T00:34:29;95491.97;;;2.30;100.00
40650;BME280;26342;42.826;23.992;2024-03-22T00:36:54;95495.59;;;2.36;100.00
40650;BME280;26342;42.826;23.992;2024-03-22T00:39:20;95497.63;;;2.34;100.00
40650;BME280;26342;42.826;23.992;2024-03-22T00:41:45;95496.44;;;2.30;100.00
40650;BME280;26342;42.826;23.992;2024-03-22T00:44:10;95504.31;;;2.36;100.00
40650;BME280;26342;42.826;23.992;2024-03-22T00:46:36;95499.25;;;2.28;100.00
40650;BME280;26342;42.826;23.992;2024-03-22T00:49:02;95501.69;;;2.23;100.00
40650;BME280;26342;42.826;23.992;2024-03-22T00:51:27;95500.88;;;2.16;100.00
40650;BME280;26342;42.826;23.992;2024-03-22T00:53:53;95499.84;;;2.10;100.00
40650;BME280;26342;42.826;23.992;2024-03-22T00:56:19;95499.22;;;2.08;100.00
40650;BME280;26342;42.826;23.992;2024-03-22T00:58:44;95485.66;;;1.91;100.00
40650;BME280;26342;42.826;23.992;2024-03-22T01:01:09;95498.00;;;2.11;100.00
40650;BME280;26342;42.826;23.992;2024-03-22T01:03:35;95497.63;;;2.14;100.00
40650;BME280;26342;42.826;23.992;2024-03-22T01:06:01;95500.63;;;2.04;100.00
40650;BME280;26342;42.826;23.992;2024-03-22T01:08:27;95506.28;;;1.94;100.00
40650;BME280;26342;42.826;23.992;2024-03-22T01:10:52;95505.25;;;1.89;100.00
40650;BME280;26342;42.826;23.992;2024-03-22T01:13:18;95502.03;;;1.87;100.00
40650;BME280;26342;42.826;23.992;2024-03-22T01:15:43;95504.84;;;1.85;100.00
40650;BME280;26342;42.826;23.992;2024-03-22T01:18:09;95512.53;;;1.80;100.00
40650;BME280;26342;42.826;23.992;2024-03-22T01:20:34;95507.09;;;1.82;100.00
40650;BME280;26342;42.826;23.992;2024-03-22T01:23:00;95510.91;;;1.79;100.00
40650;BME280;26342;42.826;23.992;2024-03-22T01:25:27;95514.56;;;1.78;100.00
40650;BME280;26342;42.826;23.992;2024-03-22T01:27:52;95507.91;;;1.82;100.00
40650;BME280;26342;42.826;23.992;2024-03-22T01:30:17;95502.63;;;1.76;100.00
40650;BME280;26342;42.826;23.992;2024-03-22T01:32:43;95495.44;;;1.50;100.00
40650;BME280;26342;42.826;23.992;2024-03-22T01:35:08;95505.34;;;1.48;100.00
40650;BME280;26342;42.826;23.992;2024-03-22T01:37:34;95493.44;;;1.52;100.00
40650;BME280;26342;42.826;23.992;2024-03-22T01:39:59;95497.69;;;1.53;100.00
40650;BME280;26342;42.826;23.992;2024-03-22T01:42:24;95500.94;;;1.55;100.00
40650;BME280;26342;42.826;23.992;2024-03-22T01:44:50;95500.75;;;1.63;100.00
40650;BME280;26342;42.826;23.992;2024-03-22T01:47:16;95502.56;;;1.62;100.00
40650;BME280;26342;42.826;23.992;2024-03-22T01:49:42;95505.03;;;1.71;100.00
40650;BME280;26342;42.826;23.992;2024-03-22T01:52:08;95511.50;;;1.68;100.00
40650;BME280;26342;42.826;23.992;2024-03-22T01:54:33;95509.28;;;1.72;100.00
40650;BME280;26342;42.826;23.992;2024-03-22T01:56:59;95507.03;;;1.68;100.00
40650;BME280;26342;42.826;23.992;2024-03-22T01:59:25;95515.34;;;1.72;100.00
40650;BME280;26342;42.826;23.992;2024-03-22T02:01:51;95507.63;;;1.64;100.00
40650;BME280;26342;42.826;23.992;2024-03-22T02:04:16;95505.16;;;1.56;100.00
40650;BME280;26342;42.826;23.992;2024-03-22T02:06:42;95505.38;;;1.54;100.00
40650;BME280;26342;42.826;23.992;2024-03-22T02:09:07;95514.50;;;1.58;100.00
40650;BME280;26342;42.826;23.992;2024-03-22T02:11:36;95513.84;;;1.50;100.00
40650;BME280;26342;42.826;23.992;2024-03-22T02:14:02;95519.50;;;1.47;100.00
40650;BME280;26342;42.826;23.992;2024-03-22T02:16:28;95497.59;;;1.33;100.00
40650;BME280;26342;42.826;23.992;2024-03-22T02:18:53;95521.13;;;1.48;100.00
40650;BME280;26342;42.826;23.992;2024-03-22T02:21:19;95508.38;;;1.45;100.00
40650;BME280;26342;42.826;23.992;2024-03-22T02:23:44;95522.53;;;1.44;100.00
40650;BME280;26342;42.826;23.992;2024-03-22T02:26:09;95524.53;;;1.42;100.00
40650;BME280;26342;42.826;23.992;2024-03-22T02:28:35;95534.47;;;1.46;100.00
40650;BME280;26342;42.826;23.992;2024-03-22T02:31:02;95536.28;;;1.46;100.00
40650;BME280;26342;42.826;23.992;2024-03-22T02:33:28;95543.56;;;1.44;100.00
40650;BME280;26342;42.826;23.992;2024-03-22T02:35:54;95537.66;;;1.35;100.00
40650;BME280;26342;42.826;23.992;2024-03-22T02:38:20;95541.69;;;1.31;100.00
40650;BME280;26342;42.826;23.992;2024-03-22T02:40:47;95541.91;;;1.36;100.00
40650;BME280;26342;42.826;23.992;2024-03-22T02:43:13;95544.16;;;1.39;100.00
40650;BME280;26342;42.826;23.992;2024-03-22T02:45:39;95558.72;;;1.42;100.00
40650;BME280;26342;42.826;23.992;2024-03-22T02:48:05;95545.97;;;1.38;100.00
40650;BME280;26342;42.826;23.992;2024-03-22T02:50:34;95549.00;;;1.35;100.00
40650;BME280;26342;42.826;23.992;2024-03-22T02:53:00;95549.16;;;1.34;100.00
40650;BME280;26342;42.826;23.992;2024-03-22T02:55:25;95549.41;;;1.39;100.00
40650;BME280;26342;42.826;23.992;2024-03-22T02:57:51;95559.72;;;1.40;100.00
40650;BME280;26342;42.826;23.992;2024-03-22T03:00:16;95548.56;;;1.32;100.00
40650;BME280;26342;42.826;23.992;2024-03-22T03:02:42;95563.75;;;1.36;100.00
40650;BME280;26342;42.826;23.992;2024-03-22T03:05:07;95559.69;;;1.34;100.00
40650;BME280;26342;42.826;23.992;2024-03-22T03:07:33;95568.22;;;1.36;100.00
40650;BME280;26342;42.826;23.992;2024-03-22T03:09:59;95570.41;;;1.32;100.00
40650;BME280;26342;42.826;23.992;2024-03-22T03:12:24;95564.94;;;1.27;100.00
40650;BME280;26342;42.826;23.992;2024-03-22T03:14:50;95568.94;;;1.23;100.00
40650;BME280;26342;42.826;23.992;2024-03-22T03:17:15;95578.03;;;1.21;100.00
40650;BME280;26342;42.826;23.992;2024-03-22T03:19:41;95572.97;;;1.19;100.00
40650;BME280;26342;42.826;23.992;2024-03-22T03:22:06;95563.44;;;1.11;100.00
40650;BME280;26342;42.826;23.992;2024-03-22T03:24:31;95564.41;;;1.10;100.00
40650;BME280;26342;42.826;23.992;2024-03-22T03:26:57;95574.56;;;1.14;100.00
40650;BME280;26342;42.826;23.992;2024-03-22T03:29:22;95567.63;;;1.06;100.00
40650;BME280;26342;42.826;23.992;2024-03-22T03:31:47;95570.22;;;0.99;100.00
40650;BME280;26342;42.826;23.992;2024-03-22T03:34:14;95572.44;;;0.96;100.00
40650;BME280;26342;42.826;23.992;2024-03-22T03:36:39;95565.72;;;0.93;100.00
40650;BME280;26342;42.826;23.992;2024-03-22T03:39:05;95551.44;;;0.74;100.00
40650;BME280;26342;42.826;23.992;2024-03-22T03:41:30;95567.88;;;0.83;100.00
40650;BME280;26342;42.826;23.992;2024-03-22T03:43:56;95567.31;;;0.88;100.00
40650;BME280;26342;42.826;23.992;2024-03-22T03:46:21;95558.31;;;0.75;100.00
40650;BME280;26342;42.826;23.992;2024-03-22T03:48:46;95573.13;;;0.83;100.00
40650;BME280;26342;42.826;23.992;2024-03-22T03:51:12;95572.72;;;0.79;100.00
40650;BME280;26342;42.826;23.992;2024-03-22T03:53:37;95580.34;;;0.74;100.00
40650;BME280;26342;42.826;23.992;2024-03-22T03:56:03;95577.53;;;0.76;100.00
40650;BME280;26342;42.826;23.992;2024-03-22T03:58:28;95575.47;;;0.71;100.00
40650;BME280;26342;42.826;23.992;2024-03-22T04:00:54;95588.22;;;0.74;100.00
40650;BME280;26342;42.826;23.992;2024-03-22T04:03:19;95588.22;;;0.74;100.00
40650;BME280;26342;42.826;23.992;2024-03-22T04:05:45;95572.00;;;0.64;100.00
40650;BME280;26342;42.826;23.992;2024-03-22T04:08:10;95580.72;;;0.71;100.00
40650;BME280;26342;42.826;23.992;2024-03-22T04:10:35;95586.00;;;0.71;100.00
40650;BME280;26342;42.826;23.992;2024-03-22T04:13:01;95599.13;;;0.71;100.00
40650;BME280;26342;42.826;23.992;2024-03-22T04:15:27;95600.53;;;0.74;100.00
40650;BME280;26342;42.826;23.992;2024-03-22T04:17:52;95603.38;;;0.72;100.00
40650;BME280;26342;42.826;23.992;2024-03-22T04:20:18;95592.88;;;0.72;100.00
40650;BME280;26342;42.826;23.992;2024-03-22T04:22:43;95601.91;;;0.70;100.00
40650;BME280;26342;42.826;23.992;2024-03-22T04:25:09;95607.00;;;0.71;100.00
40650;BME280;26342;42.826;23.992;2024-03-22T04:27:37;95590.53;;;0.63;100.00
40650;BME280;26342;42.826;23.992;2024-03-22T04:30:03;95607.97;;;0.70;100.00
40650;BME280;26342;42.826;23.992;2024-03-22T04:32:28;95607.63;;;0.73;100.00
40650;BME280;26342;42.826;23.992;2024-03-22T04:34:54;95604.38;;;0.71;100.00
40650;BME280;26342;42.826;23.992;2024-03-22T04:37:20;95611.19;;;0.66;100.00
40650;BME280;26342;42.826;23.992;2024-03-22T04:39:46;95624.94;;;0.68;100.00
40650;BME280;26342;42.826;23.992;2024-03-22T04:42:11;95618.44;;;0.64;100.00
40650;BME280;26342;42.826;23.992;2024-03-22T04:44:37;95617.00;;;0.61;100.00
40650;BME280;26342;42.826;23.992;2024-03-22T04:47:02;95622.88;;;0.63;100.00
40650;BME280;26342;42.826;23.992;2024-03-22T04:49:28;95625.50;;;0.63;100.00
40650;BME280;26342;42.826;23.992;2024-03-22T04:51:53;95631.13;;;0.60;100.00
40650;BME280;26342;42.826;23.992;2024-03-22T04:54:18;95622.44;;;0.60;100.00
40650;BME280;26342;42.826;23.992;2024-03-22T04:56:44;95629.13;;;0.62;100.00
40650;BME280;26342;42.826;23.992;2024-03-22T04:59:09;95624.06;;;0.61;100.00
40650;BME280;26342;42.826;23.992;2024-03-22T05:01:35;95636.84;;;0.64;100.00
40650;BME280;26342;42.826;23.992;2024-03-22T05:04:00;95630.56;;;0.65;100.00
40650;BME280;26342;42.826;23.992;2024-03-22T05:06:25;95611.13;;;0.59;100.00
40650;BME280;26342;42.826;23.992;2024-03-22T05:08:51;95628.97;;;0.64;100.00
40650;BME280;26342;42.826;23.992;2024-03-22T05:11:17;95623.44;;;0.59;100.00
40650;BME280;26342;42.826;23.992;2024-03-22T05:13:42;95622.63;;;0.58;100.00
40650;BME280;26342;42.826;23.992;2024-03-22T05:16:08;95631.94;;;0.61;100.00
40650;BME280;26342;42.826;23.992;2024-03-22T05:18:33;95626.75;;;0.46;100.00
40650;BME280;26342;42.826;23.992;2024-03-22T05:20:58;95632.56;;;0.41;100.00
40650;BME280;26342;42.826;23.992;2024-03-22T05:23:24;95634.75;;;0.38;100.00
40650;BME280;26342;42.826;23.992;2024-03-22T05:25:49;95628.75;;;0.44;100.00
40650;BME280;26342;42.826;23.992;2024-03-22T05:28:15;95642.31;;;0.47;100.00
40650;BME280;26342;42.826;23.992;2024-03-22T05:30:40;95641.63;;;0.60;100.00
40650;BME280;26342;42.826;23.992;2024-03-22T05:33:05;95642.91;;;0.64;100.00
40650;BME280;26342;42.826;23.992;2024-03-22T05:35:31;95643.78;;;0.71;100.00
40650;BME280;26342;42.826;23.992;2024-03-22T05:37:56;95642.63;;;0.80;100.00
40650;BME280;26342;42.826;23.992;2024-03-22T05:40:22;95641.69;;;0.88;100.00
40650;BME280;26342;42.826;23.992;2024-03-22T05:42:48;95650.09;;;1.05;100.00
40650;BME280;26342;42.826;23.992;2024-03-22T05:45:13;95647.53;;;1.11;100.00
40650;BME280;26342;42.826;23.992;2024-03-22T05:47:39;95651.84;;;1.19;100.00
40650;BME280;26342;42.826;23.992;2024-03-22T05:50:04;95653.34;;;1.35;100.00
40650;BME280;26342;42.826;23.992;2024-03-22T05:52:33;95654.81;;;1.44;100.00
40650;BME280;26342;42.826;23.992;2024-03-22T05:54:58;95656.28;;;1.53;100.00
40650;BME280;26342;42.826;23.992;2024-03-22T05:57:24;95659.84;;;1.74;100.00
40650;BME280;26342;42.826;23.992;2024-03-22T05:59:50;95659.53;;;1.90;100.00
40650;BME280;26342;42.826;23.992;2024-03-22T06:02:15;95657.19;;;2.08;100.00
40650;BME280;26342;42.826;23.992;2024-03-22T06:04:41;95654.94;;;2.12;100.00
40650;BME280;26342;42.826;23.992;2024-03-22T06:07:07;95658.66;;;2.24;100.00
40650;BME280;26342;42.826;23.992;2024-03-22T06:09:32;95639.22;;;2.32;100.00
40650;BME280;26342;42.826;23.992;2024-03-22T06:12:14;95658.53;;;2.59;100.00
40650;BME280;26342;42.826;23.992;2024-03-22T06:14:41;95661.59;;;2.75;100.00
40650;BME280;26342;42.826;23.992;2024-03-22T06:17:06;95662.66;;;2.94;100.00
40650;BME280;26342;42.826;23.992;2024-03-22T06:19:32;95666.50;;;3.18;100.00
40650;BME280;26342;42.826;23.992;2024-03-22T06:21:57;95664.25;;;3.35;100.00
40650;BME280;26342;42.826;23.992;2024-03-22T06:24:23;95670.31;;;3.55;100.00
40650;BME280;26342;42.826;23.992;2024-03-22T06:26:48;95672.94;;;3.75;100.00
40650;BME280;26342;42.826;23.992;2024-03-22T06:29:15;95669.81;;;3.98;100.00
40650;BME280;26342;42.826;23.992;2024-03-22T06:31:42;95667.53;;;4.15;100.00
40650;BME280;26342;42.826;23.992;2024-03-22T06:34:07;95662.91;;;4.42;100.00
40650;BME280;26342;42.826;23.992;2024-03-22T06:36:32;95662.81;;;4.62;100.00
40650;BME280;26342;42.826;23.992;2024-03-22T06:38:58;95661.84;;;4.88;100.00
40650;BME280;26342;42.826;23.992;2024-03-22T06:41:24;95660.09;;;5.07;100.00
40650;BME280;26342;42.826;23.992;2024-03-22T06:43:51;95660.53;;;5.28;100.00
40650;BME280;26342;42.826;23.992;2024-03-22T06:46:16;95660.94;;;5.50;100.00
40650;BME280;26342;42.826;23.992;2024-03-22T06:48:42;95646.00;;;5.81;100.00
40650;BME280;26342;42.826;23.992;2024-03-22T06:51:07;95659.03;;;6.19;100.00
40650;BME280;26342;42.826;23.992;2024-03-22T06:53:33;95658.06;;;6.50;100.00
40650;BME280;26342;42.826;23.992;2024-03-22T06:55:58;95656.97;;;6.69;100.00
40650;BME280;26342;42.826;23.992;2024-03-22T06:58:23;95656.47;;;6.91;100.00
40650;BME280;26342;42.826;23.992;2024-03-22T07:00:50;95652.13;;;7.08;100.00
40650;BME280;26342;42.826;23.992;2024-03-22T07:03:15;95656.56;;;7.38;100.00
40650;BME280;26342;42.826;23.992;2024-03-22T07:05:42;95660.16;;;7.67;100.00
40650;BME280;26342;42.826;23.992;2024-03-22T07:08:08;95663.59;;;7.79;100.00
40650;BME280;26342;42.826;23.992;2024-03-22T07:10:34;95662.69;;;7.85;100.00
40650;BME280;26342;42.826;23.992;2024-03-22T07:12:59;95653.53;;;8.04;100.00
40650;BME280;26342;42.826;23.992;2024-03-22T07:15:25;95657.44;;;8.25;100.00
40650;BME280;26342;42.826;23.992;2024-03-22T07:17:50;95659.94;;;8.44;100.00
40650;BME280;26342;42.826;23.992;2024-03-22T07:20:16;95649.75;;;8.52;100.00
40650;BME280;26342;42.826;23.992;2024-03-22T07:22:42;95660.09;;;8.65;100.00
40650;BME280;26342;42.826;23.992;2024-03-22T07:25:08;95651.78;;;8.90;100.00
40650;BME280;26342;42.826;23.992;2024-03-22T07:27:35;95653.75;;;9.12;95.71
40650;BME280;26342;42.826;23.992;2024-03-22T07:30:01;95652.81;;;9.18;100.00
40650;BME280;26342;42.826;23.992;2024-03-22T07:32:26;95653.47;;;9.25;100.00
40650;BME280;26342;42.826;23.992;2024-03-22T07:34:52;95640.56;;;9.34;100.00
40650;BME280;26342;42.826;23.992;2024-03-22T07:37:17;95643.34;;;9.61;100.00
40650;BME280;26342;42.826;23.992;2024-03-22T07:39:42;95644.78;;;9.85;100.00
40650;BME280;26342;42.826;23.992;2024-03-22T07:42:08;95646.13;;;10.04;90.79
40650;BME280;26342;42.826;23.992;2024-03-22T07:44:33;95640.88;;;10.31;89.70
40650;BME280;26342;42.826;23.992;2024-03-22T07:46:58;95644.09;;;10.55;97.11
40650;BME280;26342;42.826;23.992;2024-03-22T07:49:24;95636.94;;;10.83;89.78
40650;BME280;26342;42.826;23.992;2024-03-22T07:51:49;95641.84;;;10.96;85.53
40650;BME280;26342;42.826;23.992;2024-03-22T07:54:16;95641.41;;;11.04;84.42
40650;BME280;26342;42.826;23.992;2024-03-22T07:56:41;95640.81;;;11.29;84.58
40650;BME280;26342;42.826;23.992;2024-03-22T07:59:06;95624.75;;;11.56;77.65
40650;BME280;26342;42.826;23.992;2024-03-22T08:01:32;95635.28;;;11.73;83.36
40650;BME280;26342;42.826;23.992;2024-03-22T08:03:57;95641.63;;;11.94;77.60
40650;BME280;26342;42.826;23.992;2024-03-22T08:06:22;95646.06;;;12.25;71.69
40650;BME280;26342;42.826;23.992;2024-03-22T08:08:48;95626.00;;;12.28;70.78
40650;BME280;26342;42.826;23.992;2024-03-22T08:11:13;95633.66;;;12.67;68.22
40650;BME280;26342;42.826;23.992;2024-03-22T08:13:39;95641.25;;;13.05;74.90
40650;BME280;26342;42.826;23.992;2024-03-22T08:16:04;95633.78;;;13.23;64.33
40650;BME280;26342;42.826;23.992;2024-03-22T08:18:31;95632.72;;;13.39;67.30
40650;BME280;26342;42.826;23.992;2024-03-22T08:20:58;95630.56;;;13.66;69.70
40650;BME280;26342;42.826;23.992;2024-03-22T08:23:24;95630.28;;;13.99;59.52
40650;BME280;26342;42.826;23.992;2024-03-22T08:25:49;95623.53;;;14.11;62.49
40650;BME280;26342;42.826;23.992;2024-03-22T08:28:15;95631.81;;;14.20;52.98
40650;BME280;26342;42.826;23.992;2024-03-22T08:30:41;95627.88;;;13.92;54.45
40650;BME280;26342;42.826;23.992;2024-03-22T08:33:07;95627.28;;;14.05;59.94
40650;BME280;26342;42.826;23.992;2024-03-22T08:35:32;95617.25;;;14.36;59.41
40650;BME280;26342;42.826;23.992;2024-03-22T08:37:58;95633.88;;;14.43;54.98
40650;BME280;26342;42.826;23.992;2024-03-22T08:40:24;95621.03;;;14.35;52.73
40650;BME280;26342;42.826;23.992;2024-03-22T08:42:49;95623.63;;;14.61;54.54
40650;BME280;26342;42.826;23.992;2024-03-22T08:45:15;95626.66;;;14.54;57.03
40650;BME280;26342;42.826;23.992;2024-03-22T08:47:42;95625.13;;;14.22;54.79
40650;BME280;26342;42.826;23.992;2024-03-22T08:50:08;95622.72;;;14.16;54.18
40650;BME280;26342;42.826;23.992;2024-03-22T08:52:33;95621.56;;;14.37;55.12
40650;BME280;26342;42.826;23.992;2024-03-22T08:55:00;95631.28;;;14.18;52.95
40650;BME280;26342;42.826;23.992;2024-03-22T08:57:26;95619.47;;;14.19;52.78
40650;BME280;26342;42.826;23.992;2024-03-22T08:59:51;95626.25;;;13.96;50.55
40650;BME280;26342;42.826;23.992;2024-03-22T09:02:17;95619.53;;;13.93;54.75
40650;BME280;26342;42.826;23.992;2024-03-22T09:04:42;95626.75;;;13.98;53.21
40650;BME280;26342;42.826;23.992;2024-03-22T09:07:07;95636.16;;;14.01;54.87
40650;BME280;26342;42.826;23.992;2024-03-22T09:09:33;95620.31;;;14.09;53.59
40650;BME280;26342;42.826;23.992;2024-03-22T09:11:58;95624.31;;;14.22;51.91
40650;BME280;26342;42.826;23.992;2024-03-22T09:14:24;95632.91;;;14.19;51.67
40650;BME280;26342;42.826;23.992;2024-03-22T09:16:49;95627.81;;;14.22;50.53
40650;BME280;26342;42.826;23.992;2024-03-22T09:19:15;95621.03;;;14.35;54.29
40650;BME280;26342;42.826;23.992;2024-03-22T09:21:40;95620.63;;;14.77;55.84
40650;BME280;26342;42.826;23.992;2024-03-22T09:24:06;95611.94;;;14.91;51.18
40650;BME280;26342;42.826;23.992;2024-03-22T09:26:32;95613.44;;;14.63;46.90
40650;BME280;26342;42.826;23.992;2024-03-22T09:28:58;95613.69;;;14.61;49.93
40650;BME280;26342;42.826;23.992;2024-03-22T09:31:23;95614.41;;;14.77;50.57
40650;BME280;26342;42.826;23.992;2024-03-22T09:33:49;95612.09;;;14.60;48.13
40650;BME280;26342;42.826;23.992;2024-03-22T09:36:14;95612.06;;;14.65;49.53
40650;BME280;26342;42.826;23.992;2024-03-22T09:38:39;95611.00;;;14.66;50.60
40650;BME280;26342;42.826;23.992;2024-03-22T09:41:05;95605.38;;;14.63;49.68
40650;BME280;26342;42.826;23.992;2024-03-22T09:43:31;95611.88;;;14.51;52.54
40650;BME280;26342;42.826;23.992;2024-03-22T09:45:57;95606.91;;;14.79;53.19
40650;BME280;26342;42.826;23.992;2024-03-22T09:48:23;95607.66;;;14.90;49.58
40650;BME280;26342;42.826;23.992;2024-03-22T09:50:49;95600.81;;;15.07;54.53
40650;BME280;26342;42.826;23.992;2024-03-22T09:53:19;95600.56;;;15.09;48.82
40650;BME280;26342;42.826;23.992;2024-03-22T09:55:49;95594.78;;;15.26;50.28
40650;BME280;26342;42.826;23.992;2024-03-22T09:58:15;95598.31;;;15.21;47.97
40650;BME280;26342;42.826;23.992;2024-03-22T10:00:43;95610.47;;;15.08;48.32
40650;BME280;26342;42.826;23.992;2024-03-22T10:03:10;95599.28;;;15.35;50.49
40650;BME280;26342;42.826;23.992;2024-03-22T10:05:36;95602.47;;;15.38;45.72
40650;BME280;26342;42.826;23.992;2024-03-22T10:08:01;95595.59;;;15.26;48.81
40650;BME280;26342;42.826;23.992;2024-03-22T10:10:27;95611.44;;;15.28;48.05
40650;BME280;26342;42.826;23.992;2024-03-22T10:12:53;95610.31;;;15.34;46.14
40650;BME280;26342;42.826;23.992;2024-03-22T10:15:18;95595.69;;;15.45;45.09
40650;BME280;26342;42.826;23.992;2024-03-22T10:17:45;95593.25;;;15.49;46.27
40650;BME280;26342;42.826;23.992;2024-03-22T10:20:14;95595.78;;;15.35;45.74
40650;BME280;26342;42.826;23.992;2024-03-22T10:22:48;95588.59;;;14.86;44.35
40650;BME280;26342;42.826;23.992;2024-03-22T10:25:13;95596.03;;;14.45;47.22
40650;BME280;26342;42.826;23.992;2024-03-22T10:27:39;95577.06;;;14.21;48.26
40650;BME280;26342;42.826;23.992;2024-03-22T10:30:08;95591.09;;;14.72;48.04
40650;BME280;26342;42.826;23.992;2024-03-22T10:32:35;95577.38;;;15.18;46.66
40650;BME280;26342;42.826;23.992;2024-03-22T10:35:02;95584.53;;;15.62;43.31
40650;BME280;26342;42.826;23.992;2024-03-22T10:37:32;95586.53;;;15.80;47.84
40650;BME280;26342;42.826;23.992;2024-03-22T10:39:58;95575.59;;;15.38;44.02
40650;BME280;26342;42.826;23.992;2024-03-22T10:42:25;95577.91;;;15.15;45.57
40650;BME280;26342;42.826;23.992;2024-03-22T10:44:50;95576.28;;;15.19;46.59
40650;BME280;26342;42.826;23.992;2024-03-22T10:47:17;95581.38;;;14.82;46.31
40650;BME280;26342;42.826;23.992;2024-03-22T10:49:44;95560.47;;;14.73;46.51
40650;BME280;26342;42.826;23.992;2024-03-22T10:52:12;95572.84;;;15.08;47.41
40650;BME280;26342;42.826;23.992;2024-03-22T10:54:40;95565.28;;;15.50;46.44
40650;BME280;26342;42.826;23.992;2024-03-22T10:57:12;95561.59;;;15.70;46.15
40650;BME280;26342;42.826;23.992;2024-03-22T10:59:41;95564.94;;;15.27;43.29
40650;BME280;26342;42.826;23.992;2024-03-22T11:02:10;95559.88;;;14.82;43.98
40650;BME280;26342;42.826;23.992;2024-03-22T11:04:36;95557.00;;;15.07;46.60
40650;BME280;26342;42.826;23.992;2024-03-22T11:07:02;95550.91;;;15.30;44.27
40650;BME280;26342;42.826;23.992;2024-03-22T11:09:29;95555.94;;;15.42;45.24
40650;BME280;26342;42.826;23.992;2024-03-22T11:11:56;95546.94;;;15.57;41.99
40650;BME280;26342;42.826;23.992;2024-03-22T11:14:25;95548.59;;;15.48;40.63
40650;BME280;26342;42.826;23.992;2024-03-22T11:16:51;95545.84;;;15.58;41.16
40650;BME280;26342;42.826;23.992;2024-03-22T11:19:18;95544.22;;;15.86;54.48
40650;BME280;26342;42.826;23.992;2024-03-22T11:21:43;95541.13;;;16.22;42.78
40650;BME280;26342;42.826;23.992;2024-03-22T11:24:09;95522.31;;;16.40;41.89
40650;BME280;26342;42.826;23.992;2024-03-22T11:26:36;95526.41;;;16.57;42.05
40650;BME280;26342;42.826;23.992;2024-03-22T11:29:01;95528.38;;;16.51;39.81
40650;BME280;26342;42.826;23.992;2024-03-22T11:31:27;95527.13;;;16.43;41.93
40650;BME280;26342;42.826;23.992;2024-03-22T11:33:56;95524.75;;;16.18;40.56
40650;BME280;26342;42.826;23.992;2024-03-22T11:36:22;95517.06;;;16.30;37.55
40650;BME280;26342;42.826;23.992;2024-03-22T11:38:49;95509.53;;;16.27;37.41
40650;BME280;26342;42.826;23.992;2024-03-22T11:41:20;95520.00;;;15.62;39.33
40650;BME280;26342;42.826;23.992;2024-03-22T11:43:55;95512.66;;;15.39;40.97
40650;BME280;26342;42.826;23.992;2024-03-22T11:46:25;95510.16;;;15.18;39.46
40650;BME280;26342;42.826;23.992;2024-03-22T11:48:52;95502.94;;;15.14;39.55
40650;BME280;26342;42.826;23.992;2024-03-22T11:51:20;95511.69;;;15.24;38.50
40650;BME280;26342;42.826;23.992;2024-03-22T11:53:50;95503.78;;;15.38;38.15
40650;BME280;26342;42.826;23.992;2024-03-22T11:56:18;95512.97;;;15.66;40.13
40650;BME280;26342;42.826;23.992;2024-03-22T11:58:46;95478.63;;;15.53;37.57
40650;BME280;26342;42.826;23.992;2024-03-22T12:01:13;95487.44;;;15.34;38.33
40650;BME280;26342;42.826;23.992;2024-03-22T12:03:39;95482.72;;;15.21;37.45
40650;BME280;26342;42.826;23.992;2024-03-22T12:06:15;95493.97;;;14.94;40.30
40650;BME280;26342;42.826;23.992;2024-03-22T12:08:40;95457.22;;;14.50;39.97
40650;BME280;26342;42.826;23.992;2024-03-22T12:11:07;95483.41;;;14.69;39.97
40650;BME280;26342;42.826;23.992;2024-03-22T12:13:34;95494.38;;;14.77;40.30
40650;BME280;26342;42.826;23.992;2024-03-22T12:15:59;95484.94;;;14.80;41.50
40650;BME280;26342;42.826;23.992;2024-03-22T12:18:25;95469.06;;;14.84;40.60
40650;BME280;26342;42.826;23.992;2024-03-22T12:20:53;95485.97;;;14.84;41.20
40650;BME280;26342;42.826;23.992;2024-03-22T12:23:22;95485.34;;;14.58;42.77
40650;BME280;26342;42.826;23.992;2024-03-22T12:25:50;95484.38;;;14.39;42.16
40650;BME280;26342;42.826;23.992;2024-03-22T12:28:15;95482.81;;;14.28;42.41
40650;BME280;26342;42.826;23.992;2024-03-22T12:30:41;95484.25;;;14.10;41.28
40650;BME280;26342;42.826;23.992;2024-03-22T12:33:10;95471.63;;;14.15;41.38
40650;BME280;26342;42.826;23.992;2024-03-22T12:35:39;95474.25;;;14.31;39.49
40650;BME280;26342;42.826;23.992;2024-03-22T12:38:06;95427.41;;;14.03;40.40
40650;BME280;26342;42.826;23.992;2024-03-22T12:40:32;95460.81;;;14.31;40.46
40650;BME280;26342;42.826;23.992;2024-03-22T12:42:59;95458.66;;;14.33;42.05